sensor_id;sensor_type;location;lat;lon;timestamp;P1;durP1;ratioP1;P2;durP2;ratioP2
36191;SDS011;22233;42.708;23.360;2023-09-19T00:00:30;4.72;;;3.95;;
36191;SDS011;22233;42.708;23.360;2023-09-19T00:02:56;5.18;;;3.70;;
36191;SDS011;22233;42.708;23.360;2023-09-19T00:05:24;5.57;;;4.03;;
36191;SDS011;22233;42.708;23.360;2023-09-19T00:07:53;5.90;;;3.50;;
36191;SDS011;22233;42.708;23.360;2023-09-19T00:10:19;4.47;;;3.67;;
36191;SDS011;22233;42.708;23.360;2023-09-19T00:12:49;6.85;;;4.78;;
36191;SDS011;22233;42.708;23.360;2023-09-19T00:15:24;6.75;;;4.00;;
36191;SDS011;22233;42.708;23.360;2023-09-19T00:17:53;6.45;;;3.55;;
36191;SDS011;22233;42.708;23.360;2023-09-19T00:20:19;5.10;;;3.85;;
36191;SDS011;22233;42.708;23.360;2023-09-19T00:22:47;5.95;;;3.90;;
36191;SDS011;22233;42.708;23.360;2023-09-19T00:25:14;7.07;;;4.13;;
36191;SDS011;22233;42.708;23.360;2023-09-19T00:27:40;4.28;;;3.80;;
36191;SDS011;22233;42.708;23.360;2023-09-19T00:30:11;5.17;;;3.80;;
36191;SDS011;22233;42.708;23.360;2023-09-19T00:32:46;6.85;;;4.03;;
36191;SDS011;22233;42.708;23.360;2023-09-19T00:35:13;5.13;;;4.10;;
36191;SDS011;22233;42.708;23.360;2023-09-19T00:40:09;4.30;;;3.40;;
36191;SDS011;22233;42.708;23.360;2023-09-19T00:42:41;3.67;;;3.38;;
36191;SDS011;22233;42.708;23.360;2023-09-19T00:45:08;4.65;;;3.90;;
36191;SDS011;22233;42.708;23.360;2023-09-19T00:47:36;5.43;;;3.95;;
36191;SDS011;22233;42.708;23.360;2023-09-19T00:50:06;4.10;;;3.60;;
36191;SDS011;22233;42.708;23.360;2023-09-19T00:52:36;4.18;;;3.78;;
36191;SDS011;22233;42.708;23.360;2023-09-19T00:55:06;4.90;;;4.00;;
36191;SDS011;22233;42.708;23.360;2023-09-19T00:57:34;5.22;;;4.07;;
36191;SDS011;22233;42.708;23.360;2023-09-19T01:00:00;5.17;;;3.73;;
36191;SDS011;22233;42.708;23.360;2023-09-19T01:02:31;7.57;;;4.32;;
36191;SDS011;22233;42.708;23.360;2023-09-19T01:04:57;4.93;;;4.40;;
36191;SDS011;22233;42.708;23.360;2023-09-19T01:07:23;7.15;;;4.40;;
36191;SDS011;22233;42.708;23.360;2023-09-19T01:09:49;5.22;;;3.72;;
36191;SDS011;22233;42.708;23.360;2023-09-19T01:12:16;4.28;;;3.78;;
36191;SDS011;22233;42.708;23.360;2023-09-19T01:14:55;5.40;;;4.28;;
36191;SDS011;22233;42.708;23.360;2023-09-19T01:17:36;5.03;;;4.22;;
36191;SDS011;22233;42.708;23.360;2023-09-19T01:20:15;6.38;;;4.68;;
36191;SDS011;22233;42.708;23.360;2023-09-19T01:31:03;5.50;;;4.57;;
36191;SDS011;22233;42.708;23.360;2023-09-19T01:36:30;5.00;;;4.50;;
36191;SDS011;22233;42.708;23.360;2023-09-19T01:39:01;6.47;;;4.75;;
36191;SDS011;22233;42.708;23.360;2023-09-19T01:47:55;7.93;;;4.80;;
36191;SDS011;22233;42.708;23.360;2023-09-19T01:52:36;6.60;;;4.85;;
36191;SDS011;22233;42.708;23.360;2023-09-19T01:55:08;7.22;;;4.85;;
36191;SDS011;22233;42.708;23.360;2023-09-19T01:58:00;6.32;;;5.25;;
36191;SDS011;22233;42.708;23.360;2023-09-19T02:00:29;6.70;;;5.60;;
36191;SDS011;22233;42.708;23.360;2023-09-19T02:03:00;6.07;;;4.80;;
36191;SDS011;22233;42.708;23.360;2023-09-19T02:05:27;5.85;;;4.47;;
36191;SDS011;22233;42.708;23.360;2023-09-19T02:07:53;6.50;;;5.50;;
36191;SDS011;22233;42.708;23.360;2023-09-19T02:10:18;5.85;;;4.80;;
36191;SDS011;22233;42.708;23.360;2023-09-19T02:12:44;8.30;;;5.30;;
36191;SDS011;22233;42.708;23.360;2023-09-19T02:15:10;7.13;;;5.45;;
36191;SDS011;22233;42.708;23.360;2023-09-19T02:17:35;6.72;;;5.55;;
36191;SDS011;22233;42.708;23.360;2023-09-19T02:20:01;8.60;;;5.43;;
36191;SDS011;22233;42.708;23.360;2023-09-19T02:22:27;7.10;;;5.15;;
36191;SDS011;22233;42.708;23.360;2023-09-19T02:24:53;5.82;;;5.28;;
36191;SDS011;22233;42.708;23.360;2023-09-19T02:27:19;6.85;;;5.45;;
36191;SDS011;22233;42.708;23.360;2023-09-19T02:29:44;6.75;;;4.95;;
36191;SDS011;22233;42.708;23.360;2023-09-19T02:32:10;7.95;;;4.85;;
36191;SDS011;22233;42.708;23.360;2023-09-19T02:34:35;6.35;;;5.13;;
36191;SDS011;22233;42.708;23.360;2023-09-19T02:37:07;6.18;;;5.40;;
36191;SDS011;22233;42.708;23.360;2023-09-19T02:39:35;8.85;;;5.00;;
36191;SDS011;22233;42.708;23.360;2023-09-19T02:42:01;7.93;;;5.90;;
36191;SDS011;22233;42.708;23.360;2023-09-19T02:44:29;9.13;;;5.50;;
36191;SDS011;22233;42.708;23.360;2023-09-19T02:46:54;7.78;;;5.28;;
36191;SDS011;22233;42.708;23.360;2023-09-19T02:49:19;6.90;;;5.72;;
36191;SDS011;22233;42.708;23.360;2023-09-19T02:51:45;10.15;;;5.80;;
36191;SDS011;22233;42.708;23.360;2023-09-19T02:54:13;5.78;;;4.93;;
36191;SDS011;22233;42.708;23.360;2023-09-19T02:56:40;8.75;;;5.63;;
36191;SDS011;22233;42.708;23.360;2023-09-19T02:59:05;9.70;;;5.60;;
36191;SDS011;22233;42.708;23.360;2023-09-19T03:01:31;6.15;;;5.55;;
36191;SDS011;22233;42.708;23.360;2023-09-19T03:03:57;7.55;;;5.60;;
36191;SDS011;22233;42.708;23.360;2023-09-19T03:06:23;9.75;;;5.70;;
36191;SDS011;22233;42.708;23.360;2023-09-19T03:08:49;7.97;;;5.43;;
36191;SDS011;22233;42.708;23.360;2023-09-19T03:13:43;5.57;;;4.97;;
36191;SDS011;22233;42.708;23.360;2023-09-19T03:16:10;7.22;;;5.22;;
36191;SDS011;22233;42.708;23.360;2023-09-19T03:18:36;6.55;;;5.65;;
36191;SDS011;22233;42.708;23.360;2023-09-19T03:21:02;6.50;;;5.60;;
36191;SDS011;22233;42.708;23.360;2023-09-19T03:23:28;6.97;;;4.95;;
36191;SDS011;22233;42.708;23.360;2023-09-19T03:25:54;6.25;;;5.65;;
36191;SDS011;22233;42.708;23.360;2023-09-19T03:28:21;6.00;;;4.85;;
36191;SDS011;22233;42.708;23.360;2023-09-19T03:31:01;8.45;;;5.45;;
36191;SDS011;22233;42.708;23.360;2023-09-19T03:33:27;5.40;;;4.88;;
36191;SDS011;22233;42.708;23.360;2023-09-19T03:35:53;8.60;;;5.75;;
36191;SDS011;22233;42.708;23.360;2023-09-19T03:38:19;6.55;;;5.45;;
36191;SDS011;22233;42.708;23.360;2023-09-19T03:40:44;9.02;;;6.53;;
36191;SDS011;22233;42.708;23.360;2023-09-19T03:43:10;6.65;;;5.85;;
36191;SDS011;22233;42.708;23.360;2023-09-19T03:45:35;7.75;;;5.82;;
36191;SDS011;22233;42.708;23.360;2023-09-19T03:48:06;6.53;;;5.75;;
36191;SDS011;22233;42.708;23.360;2023-09-19T03:50:33;6.22;;;5.38;;
36191;SDS011;22233;42.708;23.360;2023-09-19T03:52:59;7.40;;;5.38;;
36191;SDS011;22233;42.708;23.360;2023-09-19T03:55:24;6.97;;;5.65;;
36191;SDS011;22233;42.708;23.360;2023-09-19T03:57:49;8.68;;;5.72;;
36191;SDS011;22233;42.708;23.360;2023-09-19T04:00:15;9.10;;;6.03;;
36191;SDS011;22233;42.708;23.360;2023-09-19T04:02:43;6.93;;;5.45;;
36191;SDS011;22233;42.708;23.360;2023-09-19T04:05:08;8.75;;;5.78;;
36191;SDS011;22233;42.708;23.360;2023-09-19T04:07:35;9.23;;;5.70;;
36191;SDS011;22233;42.708;23.360;2023-09-19T04:10:01;8.73;;;5.75;;
36191;SDS011;22233;42.708;23.360;2023-09-19T04:12:28;8.43;;;5.63;;
36191;SDS011;22233;42.708;23.360;2023-09-19T04:14:53;7.57;;;6.13;;
36191;SDS011;22233;42.708;23.360;2023-09-19T04:17:18;9.05;;;6.07;;
36191;SDS011;22233;42.708;23.360;2023-09-19T04:19:44;8.43;;;6.57;;
36191;SDS011;22233;42.708;23.360;2023-09-19T04:22:10;8.43;;;6.63;;
36191;SDS011;22233;42.708;23.360;2023-09-19T04:24:37;7.88;;;5.75;;
36191;SDS011;22233;42.708;23.360;2023-09-19T04:27:03;11.75;;;6.15;;
36191;SDS011;22233;42.708;23.360;2023-09-19T04:29:29;11.15;;;6.38;;
36191;SDS011;22233;42.708;23.360;2023-09-19T04:31:55;6.32;;;5.65;;
36191;SDS011;22233;42.708;23.360;2023-09-19T04:36:48;8.75;;;5.97;;
36191;SDS011;22233;42.708;23.360;2023-09-19T04:39:14;8.32;;;6.03;;
36191;SDS011;22233;42.708;23.360;2023-09-19T04:41:39;9.20;;;6.55;;
36191;SDS011;22233;42.708;23.360;2023-09-19T04:44:06;9.83;;;6.60;;
36191;SDS011;22233;42.708;23.360;2023-09-19T04:46:32;8.48;;;6.78;;
36191;SDS011;22233;42.708;23.360;2023-09-19T04:49:01;10.93;;;6.63;;
36191;SDS011;22233;42.708;23.360;2023-09-19T04:51:27;13.05;;;6.72;;
36191;SDS011;22233;42.708;23.360;2023-09-19T04:53:57;8.63;;;6.32;;
36191;SDS011;22233;42.708;23.360;2023-09-19T04:56:23;6.68;;;5.65;;
36191;SDS011;22233;42.708;23.360;2023-09-19T04:58:49;7.88;;;6.32;;
36191;SDS011;22233;42.708;23.360;2023-09-19T05:01:14;12.82;;;6.03;;
36191;SDS011;22233;42.708;23.360;2023-09-19T05:03:40;10.07;;;6.45;;
36191;SDS011;22233;42.708;23.360;2023-09-19T05:06:06;6.15;;;5.30;;
36191;SDS011;22233;42.708;23.360;2023-09-19T05:08:31;8.18;;;6.03;;
36191;SDS011;22233;42.708;23.360;2023-09-19T05:10:56;9.90;;;6.32;;
36191;SDS011;22233;42.708;23.360;2023-09-19T05:13:22;9.02;;;6.13;;
36191;SDS011;22233;42.708;23.360;2023-09-19T05:15:49;8.00;;;5.40;;
36191;SDS011;22233;42.708;23.360;2023-09-19T05:18:15;9.30;;;5.32;;
36191;SDS011;22233;42.708;23.360;2023-09-19T05:20:40;7.20;;;4.85;;
36191;SDS011;22233;42.708;23.360;2023-09-19T05:23:07;5.50;;;4.45;;
36191;SDS011;22233;42.708;23.360;2023-09-19T05:25:34;10.07;;;5.00;;
36191;SDS011;22233;42.708;23.360;2023-09-19T05:28:04;6.25;;;4.68;;
36191;SDS011;22233;42.708;23.360;2023-09-19T05:30:31;7.53;;;5.18;;
36191;SDS011;22233;42.708;23.360;2023-09-19T05:32:57;7.18;;;5.10;;
36191;SDS011;22233;42.708;23.360;2023-09-19T05:35:23;6.50;;;4.55;;
36191;SDS011;22233;42.708;23.360;2023-09-19T05:37:52;6.60;;;4.97;;
36191;SDS011;22233;42.708;23.360;2023-09-19T05:40:19;5.22;;;4.72;;
36191;SDS011;22233;42.708;23.360;2023-09-19T05:42:46;6.20;;;4.28;;
36191;SDS011;22233;42.708;23.360;2023-09-19T05:45:12;6.40;;;4.55;;
36191;SDS011;22233;42.708;23.360;2023-09-19T05:47:41;8.20;;;4.05;;
36191;SDS011;22233;42.708;23.360;2023-09-19T05:50:09;5.57;;;4.13;;
36191;SDS011;22233;42.708;23.360;2023-09-19T05:52:35;6.07;;;4.07;;
36191;SDS011;22233;42.708;23.360;2023-09-19T05:55:03;6.00;;;3.78;;
36191;SDS011;22233;42.708;23.360;2023-09-19T05:57:32;4.53;;;3.47;;
36191;SDS011;22233;42.708;23.360;2023-09-19T05:59:58;6.30;;;4.13;;
36191;SDS011;22233;42.708;23.360;2023-09-19T06:02:24;5.15;;;3.75;;
36191;SDS011;22233;42.708;23.360;2023-09-19T06:04:53;4.78;;;3.85;;
36191;SDS011;22233;42.708;23.360;2023-09-19T06:07:20;5.68;;;4.00;;
36191;SDS011;22233;42.708;23.360;2023-09-19T06:09:47;6.97;;;4.22;;
36191;SDS011;22233;42.708;23.360;2023-09-19T06:12:12;5.18;;;3.67;;
36191;SDS011;22233;42.708;23.360;2023-09-19T06:14:42;11.05;;;4.30;;
36191;SDS011;22233;42.708;23.360;2023-09-19T06:17:08;6.22;;;4.07;;
36191;SDS011;22233;42.708;23.360;2023-09-19T06:19:33;5.40;;;4.35;;
36191;SDS011;22233;42.708;23.360;2023-09-19T06:21:59;6.80;;;4.63;;
36191;SDS011;22233;42.708;23.360;2023-09-19T06:24:24;7.15;;;4.03;;
36191;SDS011;22233;42.708;23.360;2023-09-19T06:26:50;5.57;;;3.90;;
36191;SDS011;22233;42.708;23.360;2023-09-19T06:29:18;5.50;;;3.85;;
36191;SDS011;22233;42.708;23.360;2023-09-19T06:31:44;5.00;;;3.30;;
36191;SDS011;22233;42.708;23.360;2023-09-19T06:34:10;6.90;;;3.60;;
36191;SDS011;22233;42.708;23.360;2023-09-19T06:36:35;5.05;;;4.10;;
36191;SDS011;22233;42.708;23.360;2023-09-19T06:39:01;6.30;;;4.63;;
36191;SDS011;22233;42.708;23.360;2023-09-19T06:41:29;4.43;;;3.58;;
36191;SDS011;22233;42.708;23.360;2023-09-19T06:43:55;6.30;;;3.85;;
36191;SDS011;22233;42.708;23.360;2023-09-19T06:46:20;6.10;;;3.72;;
36191;SDS011;22233;42.708;23.360;2023-09-19T06:48:46;5.78;;;5.18;;
36191;SDS011;22233;42.708;23.360;2023-09-19T06:51:12;4.93;;;3.75;;
36191;SDS011;22233;42.708;23.360;2023-09-19T06:53:41;3.63;;;3.33;;
36191;SDS011;22233;42.708;23.360;2023-09-19T06:56:07;6.70;;;3.67;;
36191;SDS011;22233;42.708;23.360;2023-09-19T06:58:32;4.40;;;3.17;;
36191;SDS011;22233;42.708;23.360;2023-09-19T07:00:58;4.38;;;3.47;;
36191;SDS011;22233;42.708;23.360;2023-09-19T07:03:23;4.90;;;3.13;;
36191;SDS011;22233;42.708;23.360;2023-09-19T07:05:51;4.32;;;3.58;;
36191;SDS011;22233;42.708;23.360;2023-09-19T07:08:17;7.80;;;4.20;;
36191;SDS011;22233;42.708;23.360;2023-09-19T07:10:44;5.75;;;3.53;;
36191;SDS011;22233;42.708;23.360;2023-09-19T07:13:13;5.50;;;3.00;;
36191;SDS011;22233;42.708;23.360;2023-09-19T07:15:42;4.93;;;4.05;;
36191;SDS011;22233;42.708;23.360;2023-09-19T07:18:12;4.70;;;3.63;;
36191;SDS011;22233;42.708;23.360;2023-09-19T07:20:41;4.82;;;3.13;;
36191;SDS011;22233;42.708;23.360;2023-09-19T07:23:14;6.05;;;3.67;;
36191;SDS011;22233;42.708;23.360;2023-09-19T07:25:47;4.25;;;3.85;;
36191;SDS011;22233;42.708;23.360;2023-09-19T07:28:13;5.50;;;4.13;;
36191;SDS011;22233;42.708;23.360;2023-09-19T07:30:39;3.63;;;3.13;;
36191;SDS011;22233;42.708;23.360;2023-09-19T07:33:06;6.18;;;3.63;;
36191;SDS011;22233;42.708;23.360;2023-09-19T07:35:32;4.28;;;3.25;;
36191;SDS011;22233;42.708;23.360;2023-09-19T07:37:58;4.88;;;2.90;;
36191;SDS011;22233;42.708;23.360;2023-09-19T07:40:26;3.47;;;3.10;;
36191;SDS011;22233;42.708;23.360;2023-09-19T07:45:19;6.28;;;2.80;;
36191;SDS011;22233;42.708;23.360;2023-09-19T07:47:45;4.30;;;3.63;;
36191;SDS011;22233;42.708;23.360;2023-09-19T07:50:11;7.38;;;3.70;;
36191;SDS011;22233;42.708;23.360;2023-09-19T07:52:37;4.25;;;3.58;;
36191;SDS011;22233;42.708;23.360;2023-09-19T07:55:04;3.55;;;3.25;;
36191;SDS011;22233;42.708;23.360;2023-09-19T07:57:34;6.03;;;3.63;;
36191;SDS011;22233;42.708;23.360;2023-09-19T08:00:00;7.75;;;3.72;;
36191;SDS011;22233;42.708;23.360;2023-09-19T08:02:25;4.70;;;3.40;;
36191;SDS011;22233;42.708;23.360;2023-09-19T08:04:51;4.82;;;3.75;;
36191;SDS011;22233;42.708;23.360;2023-09-19T08:07:17;6.57;;;3.55;;
36191;SDS011;22233;42.708;23.360;2023-09-19T08:09:43;3.58;;;3.28;;
36191;SDS011;22233;42.708;23.360;2023-09-19T08:12:13;5.32;;;3.60;;
36191;SDS011;22233;42.708;23.360;2023-09-19T08:14:39;5.82;;;3.65;;
36191;SDS011;22233;42.708;23.360;2023-09-19T08:17:06;6.93;;;3.40;;
36191;SDS011;22233;42.708;23.360;2023-09-19T08:19:33;4.17;;;3.60;;
36191;SDS011;22233;42.708;23.360;2023-09-19T08:21:59;4.68;;;4.15;;
36191;SDS011;22233;42.708;23.360;2023-09-19T08:24:28;4.10;;;3.50;;
36191;SDS011;22233;42.708;23.360;2023-09-19T08:26:55;5.70;;;3.58;;
36191;SDS011;22233;42.708;23.360;2023-09-19T08:29:22;5.87;;;3.73;;
36191;SDS011;22233;42.708;23.360;2023-09-19T08:31:55;7.68;;;4.00;;
36191;SDS011;22233;42.708;23.360;2023-09-19T08:34:22;4.40;;;3.80;;
36191;SDS011;22233;42.708;23.360;2023-09-19T08:36:52;8.13;;;3.47;;
36191;SDS011;22233;42.708;23.360;2023-09-19T08:39:21;4.97;;;3.35;;
36191;SDS011;22233;42.708;23.360;2023-09-19T08:41:56;4.40;;;3.50;;
36191;SDS011;22233;42.708;23.360;2023-09-19T08:44:26;5.85;;;3.53;;
36191;SDS011;22233;42.708;23.360;2023-09-19T08:46:55;6.65;;;3.90;;
36191;SDS011;22233;42.708;23.360;2023-09-19T08:54:45;5.60;;;4.05;;
36191;SDS011;22233;42.708;23.360;2023-09-19T08:57:13;5.57;;;3.55;;
36191;SDS011;22233;42.708;23.360;2023-09-19T08:59:46;5.15;;;4.10;;
36191;SDS011;22233;42.708;23.360;2023-09-19T09:02:13;5.40;;;3.45;;
36191;SDS011;22233;42.708;23.360;2023-09-19T09:04:43;4.45;;;3.75;;
36191;SDS011;22233;42.708;23.360;2023-09-19T09:07:12;5.55;;;3.25;;
36191;SDS011;22233;42.708;23.360;2023-09-19T09:09:38;4.53;;;4.03;;
36191;SDS011;22233;42.708;23.360;2023-09-19T09:12:08;5.18;;;3.50;;
36191;SDS011;22233;42.708;23.360;2023-09-19T09:14:38;6.57;;;4.22;;
36191;SDS011;22233;42.708;23.360;2023-09-19T09:17:04;3.88;;;3.00;;
36191;SDS011;22233;42.708;23.360;2023-09-19T09:19:30;4.43;;;3.33;;
36191;SDS011;22233;42.708;23.360;2023-09-19T09:22:05;6.13;;;3.33;;
36191;SDS011;22233;42.708;23.360;2023-09-19T09:24:34;5.97;;;3.90;;
36191;SDS011;22233;42.708;23.360;2023-09-19T09:34:51;4.13;;;3.67;;
36191;SDS011;22233;42.708;23.360;2023-09-19T09:37:27;5.65;;;3.75;;
36191;SDS011;22233;42.708;23.360;2023-09-19T09:39:56;4.70;;;3.10;;
36191;SDS011;22233;42.708;23.360;2023-09-19T09:42:44;4.15;;;3.67;;
36191;SDS011;22233;42.708;23.360;2023-09-19T09:45:21;4.13;;;3.13;;
36191;SDS011;22233;42.708;23.360;2023-09-19T09:48:02;5.18;;;3.78;;
36191;SDS011;22233;42.708;23.360;2023-09-19T09:50:35;5.78;;;3.97;;
36191;SDS011;22233;42.708;23.360;2023-09-19T09:53:05;5.45;;;3.38;;
36191;SDS011;22233;42.708;23.360;2023-09-19T09:55:57;5.90;;;3.42;;
36191;SDS011;22233;42.708;23.360;2023-09-19T09:58:28;5.35;;;3.67;;
36191;SDS011;22233;42.708;23.360;2023-09-19T10:00:57;5.43;;;3.95;;
36191;SDS011;22233;42.708;23.360;2023-09-19T10:03:34;5.25;;;3.47;;
36191;SDS011;22233;42.708;23.360;2023-09-19T10:06:09;3.78;;;3.30;;
36191;SDS011;22233;42.708;23.360;2023-09-19T10:09:03;6.60;;;3.47;;
36191;SDS011;22233;42.708;23.360;2023-09-19T10:11:43;5.25;;;3.70;;
36191;SDS011;22233;42.708;23.360;2023-09-19T10:14:10;5.93;;;4.05;;
36191;SDS011;22233;42.708;23.360;2023-09-19T10:16:40;3.95;;;3.58;;
36191;SDS011;22233;42.708;23.360;2023-09-19T10:19:10;5.93;;;3.42;;
36191;SDS011;22233;42.708;23.360;2023-09-19T10:21:58;4.28;;;3.72;;
36191;SDS011;22233;42.708;23.360;2023-09-19T10:24:26;4.75;;;3.33;;
36191;SDS011;22233;42.708;23.360;2023-09-19T10:26:53;6.18;;;3.60;;
36191;SDS011;22233;42.708;23.360;2023-09-19T10:29:20;4.20;;;3.60;;
36191;SDS011;22233;42.708;23.360;2023-09-19T10:31:47;4.97;;;3.50;;
36191;SDS011;22233;42.708;23.360;2023-09-19T10:34:15;4.50;;;3.47;;
36191;SDS011;22233;42.708;23.360;2023-09-19T10:36:45;7.65;;;4.22;;
36191;SDS011;22233;42.708;23.360;2023-09-19T10:39:15;5.93;;;4.10;;
36191;SDS011;22233;42.708;23.360;2023-09-19T10:41:47;4.00;;;3.20;;
36191;SDS011;22233;42.708;23.360;2023-09-19T10:44:19;6.18;;;4.28;;
36191;SDS011;22233;42.708;23.360;2023-09-19T10:46:48;9.23;;;4.30;;
36191;SDS011;22233;42.708;23.360;2023-09-19T10:49:14;8.02;;;4.22;;
36191;SDS011;22233;42.708;23.360;2023-09-19T10:51:41;4.45;;;3.22;;
36191;SDS011;22233;42.708;23.360;2023-09-19T10:54:10;6.15;;;4.03;;
36191;SDS011;22233;42.708;23.360;2023-09-19T10:56:40;5.57;;;4.93;;
36191;SDS011;22233;42.708;23.360;2023-09-19T11:04:28;6.28;;;3.67;;
36191;SDS011;22233;42.708;23.360;2023-09-19T11:09:47;5.32;;;3.35;;
36191;SDS011;22233;42.708;23.360;2023-09-19T11:14:54;6.65;;;4.07;;
36191;SDS011;22233;42.708;23.360;2023-09-19T11:30:43;5.80;;;4.00;;
36191;SDS011;22233;42.708;23.360;2023-09-19T11:33:23;5.65;;;3.72;;
36191;SDS011;22233;42.708;23.360;2023-09-19T11:43:47;6.65;;;3.95;;
36191;SDS011;22233;42.708;23.360;2023-09-19T11:46:13;7.10;;;3.65;;
36191;SDS011;22233;42.708;23.360;2023-09-19T11:48:41;4.97;;;3.83;;
36191;SDS011;22233;42.708;23.360;2023-09-19T11:51:10;5.05;;;3.85;;
36191;SDS011;22233;42.708;23.360;2023-09-19T11:53:44;4.40;;;4.00;;
36191;SDS011;22233;42.708;23.360;2023-09-19T11:56:13;6.03;;;3.97;;
36191;SDS011;22233;42.708;23.360;2023-09-19T11:58:42;6.30;;;3.45;;
36191;SDS011;22233;42.708;23.360;2023-09-19T12:01:13;5.53;;;3.88;;
36191;SDS011;22233;42.708;23.360;2023-09-19T12:03:41;6.47;;;4.07;;
36191;SDS011;22233;42.708;23.360;2023-09-19T12:06:12;4.35;;;3.95;;
36191;SDS011;22233;42.708;23.360;2023-09-19T12:08:40;4.90;;;3.92;;
36191;SDS011;22233;42.708;23.360;2023-09-19T12:11:11;8.23;;;4.25;;
36191;SDS011;22233;42.708;23.360;2023-09-19T12:13:41;8.52;;;4.28;;
36191;SDS011;22233;42.708;23.360;2023-09-19T12:16:16;5.80;;;3.95;;
36191;SDS011;22233;42.708;23.360;2023-09-19T12:18:48;4.82;;;3.78;;
36191;SDS011;22233;42.708;23.360;2023-09-19T12:26:39;7.00;;;4.15;;
36191;SDS011;22233;42.708;23.360;2023-09-19T12:29:16;6.47;;;4.50;;
36191;SDS011;22233;42.708;23.360;2023-09-19T12:34:25;10.75;;;4.50;;
36191;SDS011;22233;42.708;23.360;2023-09-19T12:39:44;7.55;;;3.80;;
36191;SDS011;22233;42.708;23.360;2023-09-19T12:42:21;5.20;;;3.65;;
36191;SDS011;22233;42.708;23.360;2023-09-19T12:44:49;4.43;;;4.03;;
36191;SDS011;22233;42.708;23.360;2023-09-19T12:47:21;7.18;;;3.83;;
36191;SDS011;22233;42.708;23.360;2023-09-19T12:50:05;5.15;;;3.92;;
36191;SDS011;22233;42.708;23.360;2023-09-19T12:52:38;6.25;;;4.32;;
36191;SDS011;22233;42.708;23.360;2023-09-19T12:55:05;5.63;;;4.35;;
36191;SDS011;22233;42.708;23.360;2023-09-19T12:57:32;6.03;;;4.22;;
36191;SDS011;22233;42.708;23.360;2023-09-19T13:00:02;4.70;;;4.10;;
36191;SDS011;22233;42.708;23.360;2023-09-19T13:02:30;4.85;;;4.40;;
36191;SDS011;22233;42.708;23.360;2023-09-19T13:04:56;4.43;;;4.03;;
36191;SDS011;22233;42.708;23.360;2023-09-19T13:07:43;7.18;;;5.07;;
36191;SDS011;22233;42.708;23.360;2023-09-19T13:10:10;7.75;;;4.65;;
36191;SDS011;22233;42.708;23.360;2023-09-19T13:12:36;6.88;;;4.15;;
36191;SDS011;22233;42.708;23.360;2023-09-19T13:15:07;6.55;;;4.25;;
36191;SDS011;22233;42.708;23.360;2023-09-19T13:17:44;7.28;;;4.10;;
36191;SDS011;22233;42.708;23.360;2023-09-19T13:23:35;5.53;;;4.35;;
36191;SDS011;22233;42.708;23.360;2023-09-19T13:26:01;5.55;;;4.05;;
36191;SDS011;22233;42.708;23.360;2023-09-19T13:28:26;7.32;;;4.60;;
36191;SDS011;22233;42.708;23.360;2023-09-19T13:33:19;7.60;;;4.15;;
36191;SDS011;22233;42.708;23.360;2023-09-19T13:35:46;4.90;;;3.67;;
36191;SDS011;22233;42.708;23.360;2023-09-19T13:40:38;6.17;;;4.00;;
36191;SDS011;22233;42.708;23.360;2023-09-19T13:43:04;4.50;;;3.83;;
36191;SDS011;22233;42.708;23.360;2023-09-19T13:47:57;5.57;;;4.40;;
36191;SDS011;22233;42.708;23.360;2023-09-19T13:50:24;10.40;;;4.70;;
36191;SDS011;22233;42.708;23.360;2023-09-19T13:52:50;4.23;;;3.83;;
36191;SDS011;22233;42.708;23.360;2023-09-19T13:55:16;4.87;;;3.63;;
36191;SDS011;22233;42.708;23.360;2023-09-19T13:57:45;6.68;;;4.43;;
36191;SDS011;22233;42.708;23.360;2023-09-19T14:00:15;6.72;;;4.63;;
36191;SDS011;22233;42.708;23.360;2023-09-19T14:02:42;7.18;;;4.07;;
36191;SDS011;22233;42.708;23.360;2023-09-19T14:05:11;7.25;;;4.47;;
36191;SDS011;22233;42.708;23.360;2023-09-19T14:07:39;6.22;;;4.15;;
36191;SDS011;22233;42.708;23.360;2023-09-19T14:10:06;5.32;;;4.32;;
36191;SDS011;22233;42.708;23.360;2023-09-19T14:12:35;5.50;;;4.30;;
36191;SDS011;22233;42.708;23.360;2023-09-19T14:15:02;6.05;;;4.00;;
36191;SDS011;22233;42.708;23.360;2023-09-19T14:17:28;5.53;;;4.50;;
36191;SDS011;22233;42.708;23.360;2023-09-19T14:19:53;5.32;;;4.13;;
36191;SDS011;22233;42.708;23.360;2023-09-19T14:22:19;8.02;;;4.47;;
36191;SDS011;22233;42.708;23.360;2023-09-19T14:24:44;4.93;;;4.28;;
36191;SDS011;22233;42.708;23.360;2023-09-19T14:27:10;6.32;;;4.38;;
36191;SDS011;22233;42.708;23.360;2023-09-19T14:29:36;5.68;;;4.10;;
36191;SDS011;22233;42.708;23.360;2023-09-19T14:32:02;5.82;;;4.47;;
36191;SDS011;22233;42.708;23.360;2023-09-19T14:34:28;4.88;;;4.22;;
36191;SDS011;22233;42.708;23.360;2023-09-19T14:36:53;6.13;;;4.82;;
36191;SDS011;22233;42.708;23.360;2023-09-19T14:39:21;8.25;;;4.70;;
36191;SDS011;22233;42.708;23.360;2023-09-19T14:41:48;8.07;;;4.70;;
36191;SDS011;22233;42.708;23.360;2023-09-19T14:44:13;6.88;;;4.60;;
36191;SDS011;22233;42.708;23.360;2023-09-19T14:46:40;7.15;;;4.45;;
36191;SDS011;22233;42.708;23.360;2023-09-19T14:49:06;9.77;;;4.47;;
36191;SDS011;22233;42.708;23.360;2023-09-19T14:51:31;5.05;;;4.50;;
36191;SDS011;22233;42.708;23.360;2023-09-19T14:53:57;5.85;;;4.68;;
36191;SDS011;22233;42.708;23.360;2023-09-19T14:56:23;8.20;;;4.68;;
36191;SDS011;22233;42.708;23.360;2023-09-19T14:58:50;5.47;;;4.40;;
36191;SDS011;22233;42.708;23.360;2023-09-19T15:01:16;7.15;;;4.80;;
36191;SDS011;22233;42.708;23.360;2023-09-19T15:03:41;5.85;;;4.65;;
36191;SDS011;22233;42.708;23.360;2023-09-19T15:06:10;11.23;;;6.75;;
36191;SDS011;22233;42.708;23.360;2023-09-19T15:08:40;6.18;;;4.78;;
36191;SDS011;22233;42.708;23.360;2023-09-19T15:11:11;6.65;;;5.35;;
36191;SDS011;22233;42.708;23.360;2023-09-19T15:13:37;5.70;;;4.68;;
36191;SDS011;22233;42.708;23.360;2023-09-19T15:16:04;5.22;;;4.72;;
36191;SDS011;22233;42.708;23.360;2023-09-19T15:18:34;5.95;;;4.78;;
36191;SDS011;22233;42.708;23.360;2023-09-19T15:21:03;6.18;;;4.80;;
36191;SDS011;22233;42.708;23.360;2023-09-19T15:23:29;5.70;;;4.93;;
36191;SDS011;22233;42.708;23.360;2023-09-19T15:28:21;7.73;;;4.80;;
36191;SDS011;22233;42.708;23.360;2023-09-19T15:30:48;8.93;;;5.20;;
36191;SDS011;22233;42.708;23.360;2023-09-19T15:33:14;7.63;;;5.30;;
36191;SDS011;22233;42.708;23.360;2023-09-19T15:35:40;10.32;;;5.30;;
36191;SDS011;22233;42.708;23.360;2023-09-19T15:38:05;6.75;;;4.68;;
36191;SDS011;22233;42.708;23.360;2023-09-19T15:40:32;5.65;;;5.00;;
36191;SDS011;22233;42.708;23.360;2023-09-19T15:42:58;8.38;;;4.88;;
36191;SDS011;22233;42.708;23.360;2023-09-19T15:45:25;7.57;;;5.32;;
36191;SDS011;22233;42.708;23.360;2023-09-19T15:47:51;7.90;;;5.40;;
36191;SDS011;22233;42.708;23.360;2023-09-19T15:50:16;5.50;;;5.00;;
36191;SDS011;22233;42.708;23.360;2023-09-19T15:52:42;7.72;;;6.25;;
36191;SDS011;22233;42.708;23.360;2023-09-19T15:55:08;7.95;;;5.97;;
36191;SDS011;22233;42.708;23.360;2023-09-19T15:57:37;7.55;;;5.97;;
36191;SDS011;22233;42.708;23.360;2023-09-19T16:00:03;7.90;;;6.07;;
36191;SDS011;22233;42.708;23.360;2023-09-19T16:02:35;9.85;;;6.35;;
36191;SDS011;22233;42.708;23.360;2023-09-19T16:05:00;11.13;;;6.63;;
36191;SDS011;22233;42.708;23.360;2023-09-19T16:07:26;8.52;;;6.20;;
36191;SDS011;22233;42.708;23.360;2023-09-19T16:09:51;7.47;;;5.70;;
36191;SDS011;22233;42.708;23.360;2023-09-19T16:12:17;9.15;;;6.78;;
36191;SDS011;22233;42.708;23.360;2023-09-19T16:14:42;13.07;;;6.55;;
36191;SDS011;22233;42.708;23.360;2023-09-19T16:17:07;9.23;;;5.78;;